sensor_id;sensor_type;location;lat;lon;timestamp;pressure;altitude;pressure_sealevel;temperature;humidity
78309;BME280;67566;42.022;21.356;2023-02-07T00:01:08;100138.66;;;-2.25;50.21
78309;BME280;67566;42.022;21.356;2023-02-07T00:03:35;100146.31;;;-2.24;50.20
78309;BME280;67566;42.022;21.356;2023-02-07T00:06:08;100144.53;;;-2.23;50.64
78309;BME280;67566;42.022;21.356;2023-02-07T00:08:34;100147.59;;;-2.20;51.12
78309;BME280;67566;42.022;21.356;2023-02-07T00:11:11;100145.31;;;-2.23;50.21
78309;BME280;67566;42.022;21.356;2023-02-07T00:13:37;100144.69;;;-2.25;50.33
78309;BME280;67566;42.022;21.356;2023-02-07T00:16:04;100157.91;;;-2.26;50.15
78309;BME280;67566;42.022;21.356;2023-02-07T00:18:31;100153.84;;;-2.29;50.79
78309;BME280;67566;42.022;21.356;2023-02-07T00:21:06;100155.19;;;-2.33;50.87
78309;BME280;67566;42.022;21.356;2023-02-07T00:23:33;100165.81;;;-2.35;50.72
78309;BME280;67566;42.022;21.356;2023-02-07T00:25:59;100155.56;;;-2.36;50.94
78309;BME280;67566;42.022;21.356;2023-02-07T00:28:25;100150.72;;;-2.39;50.20
78309;BME280;67566;42.022;21.356;2023-02-07T00:30:50;100167.00;;;-2.37;50.21
78309;BME280;67566;42.022;21.356;2023-02-07T00:33:26;100161.78;;;-2.37;49.86
78309;BME280;67566;42.022;21.356;2023-02-07T00:35:59;100158.53;;;-2.39;50.48
78309;BME280;67566;42.022;21.356;2023-02-07T00:38:24;100176.13;;;-2.41;50.42
78309;BME280;67566;42.022;21.356;2023-02-07T00:40:50;100162.28;;;-2.42;50.66
78309;BME280;67566;42.022;21.356;2023-02-07T00:43:15;100165.53;;;-2.40;50.48
78309;BME280;67566;42.022;21.356;2023-02-07T00:45:41;100172.19;;;-2.37;50.45
78309;BME280;67566;42.022;21.356;2023-02-07T00:48:06;100168.97;;;-2.39;50.46
78309;BME280;67566;42.022;21.356;2023-02-07T00:50:32;100178.56;;;-2.40;51.27
78309;BME280;67566;42.022;21.356;2023-02-07T00:52:57;100173.63;;;-2.35;50.91
78309;BME280;67566;42.022;21.356;2023-02-07T00:55:22;100174.25;;;-2.33;50.82
78309;BME280;67566;42.022;21.356;2023-02-07T00:57:48;100172.09;;;-2.29;50.33
78309;BME280;67566;42.022;21.356;2023-02-07T01:00:13;100173.41;;;-2.25;50.42
78309;BME280;67566;42.022;21.356;2023-02-07T01:02:39;100159.16;;;-2.22;50.54
78309;BME280;67566;42.022;21.356;2023-02-07T01:05:05;100167.00;;;-2.22;50.40
78309;BME280;67566;42.022;21.356;2023-02-07T01:07:32;100168.00;;;-2.23;50.51
78309;BME280;67566;42.022;21.356;2023-02-07T01:09:58;100165.56;;;-2.25;50.73
78309;BME280;67566;42.022;21.356;2023-02-07T01:12:23;100162.78;;;-2.23;50.06
78309;BME280;67566;42.022;21.356;2023-02-07T01:14:49;100167.00;;;-2.22;50.22
78309;BME280;67566;42.022;21.356;2023-02-07T01:17:15;100170.06;;;-2.19;50.48
78309;BME280;67566;42.022;21.356;2023-02-07T01:19:40;100164.22;;;-2.21;50.07
78309;BME280;67566;42.022;21.356;2023-02-07T01:22:06;100169.44;;;-2.21;50.36
78309;BME280;67566;42.022;21.356;2023-02-07T01:24:31;100157.41;;;-2.22;50.47
78309;BME280;67566;42.022;21.356;2023-02-07T01:26:56;100149.75;;;-2.23;50.23
78309;BME280;67566;42.022;21.356;2023-02-07T01:29:22;100152.19;;;-2.22;50.10
78309;BME280;67566;42.022;21.356;2023-02-07T01:31:47;100148.91;;;-2.24;50.96
78309;BME280;67566;42.022;21.356;2023-02-07T01:34:13;100150.88;;;-2.26;50.83
78309;BME280;67566;42.022;21.356;2023-02-07T01:36:39;100149.91;;;-2.25;50.55
78309;BME280;67566;42.022;21.356;2023-02-07T01:39:04;100145.69;;;-2.26;50.68
78309;BME280;67566;42.022;21.356;2023-02-07T01:41:30;100162.13;;;-2.25;50.71
78309;BME280;67566;42.022;21.356;2023-02-07T01:44:00;100156.56;;;-2.22;50.92
78309;BME280;67566;42.022;21.356;2023-02-07T01:46:27;100150.19;;;-2.20;50.85
78309;BME280;67566;42.022;21.356;2023-02-07T01:48:54;100157.00;;;-2.19;51.24
78309;BME280;67566;42.022;21.356;2023-02-07T01:51:22;100155.25;;;-2.18;50.85
78309;BME280;67566;42.022;21.356;2023-02-07T01:53:49;100157.84;;;-2.18;50.57
78309;BME280;67566;42.022;21.356;2023-02-07T01:56:16;100157.00;;;-2.19;50.97
78309;BME280;67566;42.022;21.356;2023-02-07T01:58:42;100150.19;;;-2.20;51.05
78309;BME280;67566;42.022;21.356;2023-02-07T02:01:23;100152.19;;;-2.22;50.85
78309;BME280;67566;42.022;21.356;2023-02-07T02:03:52;100148.56;;;-2.21;50.78
78309;BME280;67566;42.022;21.356;2023-02-07T02:06:19;100149.56;;;-2.22;50.64
78309;BME280;67566;42.022;21.356;2023-02-07T02:08:45;100150.53;;;-2.23;51.00
78309;BME280;67566;42.022;21.356;2023-02-07T02:22:55;100162.06;;;-2.17;50.69
78309;BME280;67566;42.022;21.356;2023-02-07T02:31:17;100165.28;;;-2.30;50.99
78309;BME280;67566;42.022;21.356;2023-02-07T02:36:36;100162.56;;;-2.37;51.04
78309;BME280;67566;42.022;21.356;2023-02-07T02:39:31;100167.00;;;-2.37;51.16
78309;BME280;67566;42.022;21.356;2023-02-07T02:42:06;100164.38;;;-2.37;51.88
78309;BME280;67566;42.022;21.356;2023-02-07T02:44:48;100162.41;;;-2.35;51.18
78309;BME280;67566;42.022;21.356;2023-02-07T02:47:17;100165.53;;;-2.40;51.37
78309;BME280;67566;42.022;21.356;2023-02-07T02:49:44;100176.13;;;-2.41;51.70
78309;BME280;67566;42.022;21.356;2023-02-07T02:52:11;100173.06;;;-2.45;52.12
78309;BME280;67566;42.022;21.356;2023-02-07T02:54:38;100173.69;;;-2.43;52.06
78309;BME280;67566;42.022;21.356;2023-02-07T03:02:58;100171.19;;;-2.36;52.15
78309;BME280;67566;42.022;21.356;2023-02-07T03:05:52;100178.50;;;-2.32;52.07
78309;BME280;67566;42.022;21.356;2023-02-07T03:11:06;100184.53;;;-2.31;51.64
78309;BME280;67566;42.022;21.356;2023-02-07T03:16:16;100192.53;;;-2.33;52.26
78309;BME280;67566;42.022;21.356;2023-02-07T03:18:57;100186.84;;;-2.36;52.59
78309;BME280;67566;42.022;21.356;2023-02-07T03:23:56;100185.25;;;-2.37;52.42
78309;BME280;67566;42.022;21.356;2023-02-07T03:26:23;100194.69;;;-2.36;51.87
78309;BME280;67566;42.022;21.356;2023-02-07T03:28:50;100186.84;;;-2.36;52.21
78309;BME280;67566;42.022;21.356;2023-02-07T03:31:20;100191.44;;;-2.38;52.50
78309;BME280;67566;42.022;21.356;2023-02-07T03:33:48;100182.97;;;-2.40;52.20
78309;BME280;67566;42.022;21.356;2023-02-07T03:36:23;100186.22;;;-2.38;52.51
78309;BME280;67566;42.022;21.356;2023-02-07T03:38:52;100182.63;;;-2.37;52.63
78309;BME280;67566;42.022;21.356;2023-02-07T03:41:34;100181.81;;;-2.38;52.36
78309;BME280;67566;42.022;21.356;2023-02-07T03:44:03;100175.63;;;-2.37;52.92
78309;BME280;67566;42.022;21.356;2023-02-07T03:46:38;100174.63;;;-2.36;52.92
78309;BME280;67566;42.022;21.356;2023-02-07T03:49:04;100178.69;;;-2.33;52.52
78309;BME280;67566;42.022;21.356;2023-02-07T03:51:32;100175.25;;;-2.34;52.53
78309;BME280;67566;42.022;21.356;2023-02-07T03:53:58;100179.66;;;-2.34;52.85
78309;BME280;67566;42.022;21.356;2023-02-07T03:56:24;100182.63;;;-2.37;52.18
78309;BME280;67566;42.022;21.356;2023-02-07T03:58:49;100180.47;;;-2.34;52.52
78309;BME280;67566;42.022;21.356;2023-02-07T04:01:14;100176.19;;;-2.26;52.94
78309;BME280;67566;42.022;21.356;2023-02-07T04:03:40;100171.59;;;-2.24;52.97
78309;BME280;67566;42.022;21.356;2023-02-07T04:06:05;100181.41;;;-2.26;52.86
78309;BME280;67566;42.022;21.356;2023-02-07T04:08:31;100173.56;;;-2.26;52.87
78309;BME280;67566;42.022;21.356;2023-02-07T04:11:01;100168.34;;;-2.26;52.86
78309;BME280;67566;42.022;21.356;2023-02-07T04:13:28;100168.97;;;-2.24;52.79
78309;BME280;67566;42.022;21.356;2023-02-07T04:15:54;100163.59;;;-2.23;52.89
78309;BME280;67566;42.022;21.356;2023-02-07T04:18:19;100175.66;;;-2.22;52.77
78309;BME280;67566;42.022;21.356;2023-02-07T04:20:45;100175.84;;;-2.23;52.74
78309;BME280;67566;42.022;21.356;2023-02-07T04:23:11;100167.84;;;-2.22;53.32
78309;BME280;67566;42.022;21.356;2023-02-07T04:25:37;100169.25;;;-2.19;52.90
78309;BME280;67566;42.022;21.356;2023-02-07T04:28:02;100164.75;;;-2.25;52.91
78309;BME280;67566;42.022;21.356;2023-02-07T04:30:28;100174.47;;;-2.19;53.42
78309;BME280;67566;42.022;21.356;2023-02-07T04:32:54;100173.50;;;-2.18;53.22
78309;BME280;67566;42.022;21.356;2023-02-07T04:35:20;100176.13;;;-2.18;53.17
78309;BME280;67566;42.022;21.356;2023-02-07T04:37:45;100177.72;;;-2.17;52.96
78309;BME280;67566;42.022;21.356;2023-02-07T04:40:10;100185.25;;;-2.22;53.07
78309;BME280;67566;42.022;21.356;2023-02-07T04:42:36;100190.59;;;-2.16;53.04
78309;BME280;67566;42.022;21.356;2023-02-07T04:45:01;100194.44;;;-2.12;52.99
78309;BME280;67566;42.022;21.356;2023-02-07T04:47:27;100197.63;;;-2.16;53.19
78309;BME280;67566;42.022;21.356;2023-02-07T04:49:52;100197.44;;;-2.15;53.17
78309;BME280;67566;42.022;21.356;2023-02-07T04:52:18;100205.44;;;-2.16;52.74
78309;BME280;67566;42.022;21.356;2023-02-07T04:54:43;100203.63;;;-2.16;53.21
78309;BME280;67566;42.022;21.356;2023-02-07T04:57:10;100222.25;;;-2.19;53.00
78309;BME280;67566;42.022;21.356;2023-02-07T04:59:35;100219.19;;;-2.22;53.61
78309;BME280;67566;42.022;21.356;2023-02-07T05:02:01;100218.56;;;-2.24;53.67
78309;BME280;67566;42.022;21.356;2023-02-07T05:04:26;100226.13;;;-2.15;54.22
78309;BME280;67566;42.022;21.356;2023-02-07T05:06:52;100231.34;;;-2.15;53.81
78309;BME280;67566;42.022;21.356;2023-02-07T05:09:17;100229.22;;;-2.11;54.01
78309;BME280;67566;42.022;21.356;2023-02-07T05:11:43;100232.97;;;-2.14;53.57
78309;BME280;67566;42.022;21.356;2023-02-07T05:14:08;100234.78;;;-2.14;54.06
78309;BME280;67566;42.022;21.356;2023-02-07T05:16:34;100243.06;;;-2.11;53.91
78309;BME280;67566;42.022;21.356;2023-02-07T05:18:59;100238.63;;;-2.10;54.04
78309;BME280;67566;42.022;21.356;2023-02-07T05:21:25;100246.63;;;-2.12;54.27
78309;BME280;67566;42.022;21.356;2023-02-07T05:23:50;100253.22;;;-2.16;53.88
78309;BME280;67566;42.022;21.356;2023-02-07T05:26:16;100247.19;;;-2.16;54.14
78309;BME280;67566;42.022;21.356;2023-02-07T05:28:42;100250.09;;;-2.11;54.27
78309;BME280;67566;42.022;21.356;2023-02-07T05:31:07;100261.16;;;-2.09;54.50
78309;BME280;67566;42.022;21.356;2023-02-07T05:33:33;100263.94;;;-2.11;53.63
78309;BME280;67566;42.022;21.356;2023-02-07T05:35:59;100266.72;;;-2.12;54.11
78309;BME280;67566;42.022;21.356;2023-02-07T05:38:26;100274.72;;;-2.14;54.36
78309;BME280;67566;42.022;21.356;2023-02-07T05:40:51;100276.34;;;-2.13;55.07
78309;BME280;67566;42.022;21.356;2023-02-07T05:43:17;100277.78;;;-2.10;54.35
78309;BME280;67566;42.022;21.356;2023-02-07T05:45:42;100276.00;;;-2.10;54.17
78309;BME280;67566;42.022;21.356;2023-02-07T05:48:10;100285.25;;;-2.07;54.40
78309;BME280;67566;42.022;21.356;2023-02-07T05:50:36;100285.09;;;-2.05;54.02
78309;BME280;67566;42.022;21.356;2023-02-07T05:53:02;100296.97;;;-2.03;54.09
78309;BME280;67566;42.022;21.356;2023-02-07T05:55:27;100297.78;;;-2.02;54.75
78309;BME280;67566;42.022;21.356;2023-02-07T05:57:53;100298.09;;;-1.97;54.13
78309;BME280;67566;42.022;21.356;2023-02-07T06:00:18;100307.75;;;-1.83;54.20
78309;BME280;67566;42.022;21.356;2023-02-07T06:02:44;100307.41;;;-1.65;54.01
78309;BME280;67566;42.022;21.356;2023-02-07T06:05:12;100314.72;;;-1.60;53.40
78309;BME280;67566;42.022;21.356;2023-02-07T06:07:37;100313.09;;;-1.61;53.81
78309;BME280;67566;42.022;21.356;2023-02-07T06:10:04;100323.53;;;-1.61;53.27
78309;BME280;67566;42.022;21.356;2023-02-07T06:12:30;100321.53;;;-1.59;53.27
78309;BME280;67566;42.022;21.356;2023-02-07T06:14:55;100321.53;;;-1.59;53.33
78309;BME280;67566;42.022;21.356;2023-02-07T06:17:21;100317.22;;;-1.52;53.54
78309;BME280;67566;42.022;21.356;2023-02-07T06:19:47;100321.47;;;-1.51;53.08
78309;BME280;67566;42.022;21.356;2023-02-07T06:22:13;100317.06;;;-1.50;53.30
78309;BME280;67566;42.022;21.356;2023-02-07T06:24:39;100313.47;;;-1.49;53.48
78309;BME280;67566;42.022;21.356;2023-02-07T06:27:04;100325.44;;;-1.40;53.01
78309;BME280;67566;42.022;21.356;2023-02-07T06:29:30;100330.31;;;-1.37;52.87
78309;BME280;67566;42.022;21.356;2023-02-07T06:31:55;100330.78;;;-1.34;52.89
78309;BME280;67566;42.022;21.356;2023-02-07T06:34:21;100326.63;;;-1.28;52.62
78309;BME280;67566;42.022;21.356;2023-02-07T06:36:46;100334.91;;;-1.24;52.52
78309;BME280;67566;42.022;21.356;2023-02-07T06:39:12;100333.94;;;-1.23;52.72
78309;BME280;67566;42.022;21.356;2023-02-07T06:41:37;100329.50;;;-1.23;52.92
78309;BME280;67566;42.022;21.356;2023-02-07T06:44:03;100336.81;;;-1.18;52.27
78309;BME280;67566;42.022;21.356;2023-02-07T06:46:29;100332.50;;;-1.11;52.65
78309;BME280;67566;42.022;21.356;2023-02-07T06:48:54;100331.13;;;-1.07;52.18
78309;BME280;67566;42.022;21.356;2023-02-07T06:51:20;100336.09;;;-0.97;52.23
78309;BME280;67566;42.022;21.356;2023-02-07T06:53:45;100332.94;;;-0.92;52.01
78309;BME280;67566;42.022;21.356;2023-02-07T06:56:11;100332.19;;;-0.86;52.62
78309;BME280;67566;42.022;21.356;2023-02-07T06:58:36;100336.28;;;-0.84;52.90
78309;BME280;67566;42.022;21.356;2023-02-07T07:01:02;100335.25;;;-0.83;52.67
78309;BME280;67566;42.022;21.356;2023-02-07T07:03:28;100347.22;;;-0.73;52.35
78309;BME280;67566;42.022;21.356;2023-02-07T07:05:56;100350.75;;;-0.66;51.89
78309;BME280;67566;42.022;21.356;2023-02-07T07:08:22;100345.03;;;-0.55;51.66
78309;BME280;67566;42.022;21.356;2023-02-07T07:10:48;100353.59;;;-0.46;52.30
78309;BME280;67566;42.022;21.356;2023-02-07T07:13:14;100347.69;;;-0.33;50.91
78309;BME280;67566;42.022;21.356;2023-02-07T07:15:39;100350.38;;;-0.27;51.15
78309;BME280;67566;42.022;21.356;2023-02-07T07:18:05;100353.50;;;-0.16;50.62
78309;BME280;67566;42.022;21.356;2023-02-07T07:20:30;100347.97;;;-0.07;50.94
78309;BME280;67566;42.022;21.356;2023-02-07T07:22:55;100347.28;;;0.06;50.54
78309;BME280;67566;42.022;21.356;2023-02-07T07:25:21;100352.63;;;0.20;50.29
78309;BME280;67566;42.022;21.356;2023-02-07T07:27:47;100344.63;;;0.28;49.63
78309;BME280;67566;42.022;21.356;2023-02-07T07:30:12;100345.53;;;0.42;49.86
78309;BME280;67566;42.022;21.356;2023-02-07T07:32:38;100348.69;;;0.59;50.08
78309;BME280;67566;42.022;21.356;2023-02-07T07:35:04;100343.34;;;0.73;49.60
78309;BME280;67566;42.022;21.356;2023-02-07T07:37:30;100345.03;;;0.88;49.54
78309;BME280;67566;42.022;21.356;2023-02-07T07:39:56;100337.44;;;1.00;48.53
78309;BME280;67566;42.022;21.356;2023-02-07T07:42:21;100334.41;;;1.03;47.97
78309;BME280;67566;42.022;21.356;2023-02-07T07:44:47;100333.63;;;1.02;48.33
78309;BME280;67566;42.022;21.356;2023-02-07T07:47:12;100344.38;;;1.14;47.40
78309;BME280;67566;42.022;21.356;2023-02-07T07:49:38;100342.38;;;1.23;47.52
78309;BME280;67566;42.022;21.356;2023-02-07T07:52:04;100336.53;;;1.27;46.82
78309;BME280;67566;42.022;21.356;2023-02-07T07:54:29;100338.81;;;1.37;47.11
78309;BME280;67566;42.022;21.356;2023-02-07T07:56:55;100333.59;;;1.44;46.44
78309;BME280;67566;42.022;21.356;2023-02-07T07:59:20;100333.41;;;1.52;45.77
78309;BME280;67566;42.022;21.356;2023-02-07T08:01:46;100333.63;;;1.64;46.16
78309;BME280;67566;42.022;21.356;2023-02-07T08:04:11;100330.41;;;1.68;45.49
78309;BME280;67566;42.022;21.356;2023-02-07T08:06:36;100331.44;;;1.81;44.89
78309;BME280;67566;42.022;21.356;2023-02-07T08:09:02;100332.66;;;1.92;45.22
78309;BME280;67566;42.022;21.356;2023-02-07T08:11:27;100327.03;;;2.15;44.58
78309;BME280;67566;42.022;21.356;2023-02-07T08:13:53;100330.06;;;2.45;44.43
78309;BME280;67566;42.022;21.356;2023-02-07T08:16:18;100326.19;;;2.61;43.80
78309;BME280;67566;42.022;21.356;2023-02-07T08:18:44;100328.59;;;2.76;43.29
78309;BME280;67566;42.022;21.356;2023-02-07T08:21:09;100321.25;;;2.98;42.46
78309;BME280;67566;42.022;21.356;2023-02-07T08:23:36;100315.78;;;2.99;42.32
78309;BME280;67566;42.022;21.356;2023-02-07T08:26:02;100316.34;;;3.08;42.14
78309;BME280;67566;42.022;21.356;2023-02-07T08:28:28;100320.59;;;3.09;41.91
78309;BME280;67566;42.022;21.356;2023-02-07T08:30:58;100314.53;;;3.02;42.58
78309;BME280;67566;42.022;21.356;2023-02-07T08:33:24;100328.53;;;3.02;41.68
78309;BME280;67566;42.022;21.356;2023-02-07T08:35:49;100319.81;;;3.02;41.27
78309;BME280;67566;42.022;21.356;2023-02-07T08:38:15;100310.91;;;3.03;41.08
78309;BME280;67566;42.022;21.356;2023-02-07T08:40:41;100311.13;;;3.01;41.50
78309;BME280;67566;42.022;21.356;2023-02-07T08:43:06;100303.22;;;3.01;41.54
78309;BME280;67566;42.022;21.356;2023-02-07T08:45:40;100312.63;;;3.29;41.13
78309;BME280;67566;42.022;21.356;2023-02-07T08:48:07;100307.19;;;3.63;40.47
78309;BME280;67566;42.022;21.356;2023-02-07T08:50:32;100307.19;;;3.88;40.22
78309;BME280;67566;42.022;21.356;2023-02-07T08:52:58;100306.66;;;4.11;39.63
78309;BME280;67566;42.022;21.356;2023-02-07T08:55:23;100312.38;;;4.51;39.73
78309;BME280;67566;42.022;21.356;2023-02-07T08:57:49;100311.28;;;5.15;38.92
78309;BME280;67566;42.022;21.356;2023-02-07T09:00:14;100309.34;;;5.52;38.08
78309;BME280;67566;42.022;21.356;2023-02-07T09:02:40;100317.97;;;6.55;36.44
78309;BME280;67566;42.022;21.356;2023-02-07T09:05:08;100312.56;;;9.72;33.98
78309;BME280;67566;42.022;21.356;2023-02-07T09:07:33;100306.78;;;13.93;29.69
78309;BME280;67566;42.022;21.356;2023-02-07T09:09:59;100311.78;;;16.76;26.38
78309;BME280;67566;42.022;21.356;2023-02-07T09:12:24;100312.56;;;16.49;24.72
78309;BME280;67566;42.022;21.356;2023-02-07T09:14:50;100319.78;;;15.30;24.53
78309;BME280;67566;42.022;21.356;2023-02-07T09:17:15;100311.56;;;13.96;24.52
78309;BME280;67566;42.022;21.356;2023-02-07T09:19:41;100308.97;;;12.86;26.23
78309;BME280;67566;42.022;21.356;2023-02-07T09:22:06;100309.16;;;11.94;26.95
78309;BME280;67566;42.022;21.356;2023-02-07T09:24:32;100313.78;;;11.20;27.85
78309;BME280;67566;42.022;21.356;2023-02-07T09:26:57;100310.47;;;10.39;28.63
78309;BME280;67566;42.022;21.356;2023-02-07T09:29:23;100314.75;;;9.75;29.36
78309;BME280;67566;42.022;21.356;2023-02-07T09:31:49;100302.84;;;9.29;29.88
78309;BME280;67566;42.022;21.356;2023-02-07T09:34:14;100309.47;;;9.04;29.22
78309;BME280;67566;42.022;21.356;2023-02-07T09:36:40;100309.75;;;8.85;30.21
78309;BME280;67566;42.022;21.356;2023-02-07T09:39:05;100307.97;;;8.69;29.69
78309;BME280;67566;42.022;21.356;2023-02-07T09:41:53;100301.25;;;8.44;29.40
78309;BME280;67566;42.022;21.356;2023-02-07T09:44:27;100303.91;;;8.10;30.49
78309;BME280;67566;42.022;21.356;2023-02-07T09:47:04;100299.13;;;7.33;30.82
78309;BME280;67566;42.022;21.356;2023-02-07T09:50:01;100299.19;;;7.21;32.14
78309;BME280;67566;42.022;21.356;2023-02-07T09:52:43;100290.09;;;7.17;32.02
78309;BME280;67566;42.022;21.356;2023-02-07T09:57:51;100294.25;;;6.60;33.16
78309;BME280;67566;42.022;21.356;2023-02-07T10:00:22;100294.00;;;6.74;32.45
78309;BME280;67566;42.022;21.356;2023-02-07T10:05:26;100284.31;;;9.98;30.65
78309;BME280;67566;42.022;21.356;2023-02-07T10:07:54;100276.22;;;12.50;27.56
78309;BME280;67566;42.022;21.356;2023-02-07T10:10:38;100276.47;;;13.97;25.28
78309;BME280;67566;42.022;21.356;2023-02-07T10:16:04;100271.69;;;13.10;26.21
78309;BME280;67566;42.022;21.356;2023-02-07T10:18:41;100256.81;;;11.93;26.23
78309;BME280;67566;42.022;21.356;2023-02-07T10:21:13;100248.22;;;11.49;27.20
78309;BME280;67566;42.022;21.356;2023-02-07T10:26:37;100244.41;;;12.58;26.65
78309;BME280;67566;42.022;21.356;2023-02-07T10:29:16;100245.66;;;15.54;24.23
78309;BME280;67566;42.022;21.356;2023-02-07T10:31:47;100236.28;;;16.58;22.97
78309;BME280;67566;42.022;21.356;2023-02-07T10:34:38;100239.56;;;16.69;21.48
78309;BME280;67566;42.022;21.356;2023-02-07T10:37:26;100240.75;;;17.50;20.27
78309;BME280;67566;42.022;21.356;2023-02-07T10:42:26;100233.25;;;14.58;21.94
78309;BME280;67566;42.022;21.356;2023-02-07T10:44:53;100226.25;;;14.38;21.99
78309;BME280;67566;42.022;21.356;2023-02-07T10:47:19;100219.16;;;17.41;21.76
78309;BME280;67566;42.022;21.356;2023-02-07T10:49:47;100224.53;;;19.89;18.94
78309;BME280;67566;42.022;21.356;2023-02-07T10:52:23;100210.22;;;20.86;18.09
78309;BME280;67566;42.022;21.356;2023-02-07T10:54:58;100211.91;;;20.91;17.75
78309;BME280;67566;42.022;21.356;2023-02-07T10:57:25;100213.91;;;19.75;19.56
78309;BME280;67566;42.022;21.356;2023-02-07T11:02:44;100215.13;;;18.06;18.85
78309;BME280;67566;42.022;21.356;2023-02-07T11:07:39;100191.25;;;20.86;18.40
78309;BME280;67566;42.022;21.356;2023-02-07T11:10:23;100195.47;;;22.21;16.37
78309;BME280;67566;42.022;21.356;2023-02-07T11:12:53;100197.81;;;23.41;15.64
78309;BME280;67566;42.022;21.356;2023-02-07T11:15:22;100191.75;;;24.07;16.05
78309;BME280;67566;42.022;21.356;2023-02-07T11:17:54;100183.19;;;24.41;14.75
78309;BME280;67566;42.022;21.356;2023-02-07T11:20:26;100184.72;;;22.00;15.76
78309;BME280;67566;42.022;21.356;2023-02-07T11:22:54;100167.78;;;20.18;17.02
78309;BME280;67566;42.022;21.356;2023-02-07T11:25:33;100170.03;;;21.88;15.63
78309;BME280;67566;42.022;21.356;2023-02-07T11:28:00;100173.56;;;22.51;15.51
78309;BME280;67566;42.022;21.356;2023-02-07T11:30:27;100174.34;;;21.23;16.36
78309;BME280;67566;42.022;21.356;2023-02-07T11:32:56;100168.50;;;19.42;17.17
78309;BME280;67566;42.022;21.356;2023-02-07T11:35:23;100160.63;;;19.67;17.55
78309;BME280;67566;42.022;21.356;2023-02-07T11:38:12;100165.16;;;20.31;16.38
78309;BME280;67566;42.022;21.356;2023-02-07T11:40:46;100153.75;;;19.13;17.11
78309;BME280;67566;42.022;21.356;2023-02-07T11:43:14;100141.81;;;18.44;18.52
78309;BME280;67566;42.022;21.356;2023-02-07T11:45:46;100141.25;;;17.76;18.51
78309;BME280;67566;42.022;21.356;2023-02-07T11:48:38;100127.44;;;16.92;18.57
78309;BME280;67566;42.022;21.356;2023-02-07T11:51:06;100121.78;;;16.30;19.00
78309;BME280;67566;42.022;21.356;2023-02-07T11:53:37;100125.69;;;15.82;19.23
78309;BME280;67566;42.022;21.356;2023-02-07T11:56:04;100120.22;;;15.40;19.69
78309;BME280;67566;42.022;21.356;2023-02-07T11:58:37;100121.56;;;14.91;19.94
78309;BME280;67566;42.022;21.356;2023-02-07T12:01:05;100118.84;;;14.34;20.11
78309;BME280;67566;42.022;21.356;2023-02-07T12:03:45;100126.97;;;13.17;21.24
78309;BME280;67566;42.022;21.356;2023-02-07T12:06:17;100121.91;;;12.81;21.33
78309;BME280;67566;42.022;21.356;2023-02-07T12:08:44;100125.09;;;12.23;21.33
78309;BME280;67566;42.022;21.356;2023-02-07T12:11:16;100118.81;;;11.93;21.59
78309;BME280;67566;42.022;21.356;2023-02-07T12:13:50;100121.53;;;11.57;22.32
78309;BME280;67566;42.022;21.356;2023-02-07T12:16:27;100118.88;;;11.06;22.38
78309;BME280;67566;42.022;21.356;2023-02-07T12:23:56;100125.16;;;9.90;23.13
78309;BME280;67566;42.022;21.356;2023-02-07T12:26:31;100117.16;;;9.10;23.59
78309;BME280;67566;42.022;21.356;2023-02-07T12:32:19;100130.50;;;8.61;24.55
78309;BME280;67566;42.022;21.356;2023-02-07T12:34:57;100121.47;;;8.40;25.26
78309;BME280;67566;42.022;21.356;2023-02-07T12:43:29;100122.97;;;7.69;26.99
78309;BME280;67566;42.022;21.356;2023-02-07T12:54:23;100125.13;;;5.95;28.19
78309;BME280;67566;42.022;21.356;2023-02-07T13:02:29;100132.06;;;4.95;29.86
78309;BME280;67566;42.022;21.356;2023-02-07T13:12:55;100127.69;;;4.03;31.09
78309;BME280;67566;42.022;21.356;2023-02-07T13:15:26;100128.94;;;4.19;31.56
78309;BME280;67566;42.022;21.356;2023-02-07T13:18:24;100124.56;;;4.12;31.63
78309;BME280;67566;42.022;21.356;2023-02-07T13:21:06;100122.72;;;4.13;31.60
78309;BME280;67566;42.022;21.356;2023-02-07T13:23:37;100124.78;;;4.11;32.01
78309;BME280;67566;42.022;21.356;2023-02-07T13:26:13;100124.84;;;4.04;32.25
78309;BME280;67566;42.022;21.356;2023-02-07T13:28:44;100121.66;;;3.77;32.19
78309;BME280;67566;42.022;21.356;2023-02-07T13:31:16;100116.41;;;3.77;32.07
78309;BME280;67566;42.022;21.356;2023-02-07T13:33:42;100120.44;;;3.54;33.08
78309;BME280;67566;42.022;21.356;2023-02-07T13:36:30;100120.84;;;3.33;32.93
78309;BME280;67566;42.022;21.356;2023-02-07T13:39:12;100131.47;;;3.19;32.83
78309;BME280;67566;42.022;21.356;2023-02-07T13:42:18;100128.97;;;2.99;32.53
78309;BME280;67566;42.022;21.356;2023-02-07T13:55:40;100135.72;;;2.50;33.73
78309;BME280;67566;42.022;21.356;2023-02-07T14:01:21;100130.66;;;2.49;33.48
78309;BME280;67566;42.022;21.356;2023-02-07T14:04:10;100122.59;;;2.43;34.18
78309;BME280;67566;42.022;21.356;2023-02-07T14:06:38;100122.63;;;2.37;33.51
78309;BME280;67566;42.022;21.356;2023-02-07T14:12:15;100116.41;;;2.24;34.42
78309;BME280;67566;42.022;21.356;2023-02-07T14:14:43;100117.22;;;2.18;33.86
78309;BME280;67566;42.022;21.356;2023-02-07T14:20:01;100112.59;;;2.20;34.77
78309;BME280;67566;42.022;21.356;2023-02-07T14:22:28;100121.88;;;2.16;34.16
78309;BME280;67566;42.022;21.356;2023-02-07T14:27:39;100115.81;;;2.22;34.87
78309;BME280;67566;42.022;21.356;2023-02-07T14:40:26;100109.78;;;2.08;35.58
78309;BME280;67566;42.022;21.356;2023-02-07T14:45:33;100087.97;;;2.08;35.63
78309;BME280;67566;42.022;21.356;2023-02-07T14:47:59;100098.91;;;1.98;35.92
78309;BME280;67566;42.022;21.356;2023-02-07T14:50:27;100098.53;;;1.88;35.22
78309;BME280;67566;42.022;21.356;2023-02-07T14:53:00;100101.75;;;1.90;35.57
78309;BME280;67566;42.022;21.356;2023-02-07T14:55:51;100090.25;;;1.78;35.64